sensor_id;sensor_type;location;lat;lon;timestamp;P1;durP1;ratioP1;P2;durP2;ratioP2
35276;SDS011;21401;50.878;8.050;2023-01-19T00:00:54;37.67;;;21.48;;
35276;SDS011;21401;50.878;8.050;2023-01-19T00:03:19;38.83;;;19.40;;
35276;SDS011;21401;50.878;8.050;2023-01-19T00:05:45;38.30;;;20.13;;
35276;SDS011;21401;50.878;8.050;2023-01-19T00:08:11;35.00;;;19.58;;
35276;SDS011;21401;50.878;8.050;2023-01-19T00:10:41;42.45;;;20.17;;
35276;SDS011;21401;50.878;8.050;2023-01-19T00:13:09;42.63;;;20.40;;
35276;SDS011;21401;50.878;8.050;2023-01-19T00:15:34;38.90;;;18.23;;
35276;SDS011;21401;50.878;8.050;2023-01-19T00:18:00;38.08;;;18.80;;
35276;SDS011;21401;50.878;8.050;2023-01-19T00:20:26;93.97;;;31.63;;
35276;SDS011;21401;50.878;8.050;2023-01-19T00:22:54;112.93;;;36.95;;
35276;SDS011;21401;50.878;8.050;2023-01-19T00:25:20;118.93;;;34.47;;
35276;SDS011;21401;50.878;8.050;2023-01-19T00:27:48;130.40;;;38.58;;
35276;SDS011;21401;50.878;8.050;2023-01-19T00:30:15;137.98;;;41.13;;
35276;SDS011;21401;50.878;8.050;2023-01-19T00:32:40;139.10;;;45.38;;
35276;SDS011;21401;50.878;8.050;2023-01-19T00:35:11;153.40;;;43.25;;
35276;SDS011;21401;50.878;8.050;2023-01-19T00:37:37;108.63;;;35.60;;
35276;SDS011;21401;50.878;8.050;2023-01-19T00:40:03;108.78;;;35.67;;
35276;SDS011;21401;50.878;8.050;2023-01-19T00:42:29;116.30;;;34.67;;
35276;SDS011;21401;50.878;8.050;2023-01-19T00:45:08;98.90;;;32.58;;
35276;SDS011;21401;50.878;8.050;2023-01-19T00:47:35;85.43;;;29.67;;
35276;SDS011;21401;50.878;8.050;2023-01-19T00:50:01;84.60;;;26.65;;
35276;SDS011;21401;50.878;8.050;2023-01-19T00:52:27;75.22;;;26.85;;
35276;SDS011;21401;50.878;8.050;2023-01-19T00:54:56;93.68;;;29.30;;
35276;SDS011;21401;50.878;8.050;2023-01-19T00:57:24;74.20;;;23.42;;
35276;SDS011;21401;50.878;8.050;2023-01-19T00:59:51;56.20;;;21.17;;
35276;SDS011;21401;50.878;8.050;2023-01-19T01:02:16;58.42;;;23.02;;
35276;SDS011;21401;50.878;8.050;2023-01-19T01:04:42;49.88;;;17.23;;
35276;SDS011;21401;50.878;8.050;2023-01-19T01:07:08;38.83;;;16.55;;
35276;SDS011;21401;50.878;8.050;2023-01-19T01:09:34;29.25;;;12.20;;
35276;SDS011;21401;50.878;8.050;2023-01-19T01:12:02;25.40;;;11.68;;
35276;SDS011;21401;50.878;8.050;2023-01-19T01:14:28;18.10;;;9.20;;
35276;SDS011;21401;50.878;8.050;2023-01-19T01:16:53;15.00;;;8.38;;
35276;SDS011;21401;50.878;8.050;2023-01-19T01:19:19;17.38;;;8.55;;
35276;SDS011;21401;50.878;8.050;2023-01-19T01:21:45;20.13;;;9.40;;
35276;SDS011;21401;50.878;8.050;2023-01-19T01:24:11;14.52;;;8.23;;
35276;SDS011;21401;50.878;8.050;2023-01-19T01:26:37;16.30;;;8.75;;
35276;SDS011;21401;50.878;8.050;2023-01-19T01:29:07;11.70;;;8.25;;
35276;SDS011;21401;50.878;8.050;2023-01-19T01:31:33;13.90;;;7.82;;
35276;SDS011;21401;50.878;8.050;2023-01-19T01:34:02;14.52;;;7.78;;
35276;SDS011;21401;50.878;8.050;2023-01-19T01:36:28;16.67;;;7.43;;
35276;SDS011;21401;50.878;8.050;2023-01-19T01:38:56;13.85;;;7.78;;
35276;SDS011;21401;50.878;8.050;2023-01-19T01:41:22;13.27;;;8.15;;
35276;SDS011;21401;50.878;8.050;2023-01-19T01:43:52;12.65;;;8.55;;
35276;SDS011;21401;50.878;8.050;2023-01-19T01:46:22;12.30;;;6.95;;
35276;SDS011;21401;50.878;8.050;2023-01-19T01:49:11;11.60;;;6.38;;
35276;SDS011;21401;50.878;8.050;2023-01-19T01:51:47;12.65;;;7.65;;
35276;SDS011;21401;50.878;8.050;2023-01-19T01:54:25;12.65;;;7.10;;
35276;SDS011;21401;50.878;8.050;2023-01-19T01:56:57;15.43;;;7.90;;
35276;SDS011;21401;50.878;8.050;2023-01-19T01:59:27;12.73;;;8.43;;
35276;SDS011;21401;50.878;8.050;2023-01-19T02:02:11;14.60;;;7.38;;
35276;SDS011;21401;50.878;8.050;2023-01-19T02:05:05;16.65;;;9.38;;
35276;SDS011;21401;50.878;8.050;2023-01-19T02:08:18;13.82;;;8.35;;
35276;SDS011;21401;50.878;8.050;2023-01-19T02:10:47;13.75;;;7.78;;
35276;SDS011;21401;50.878;8.050;2023-01-19T02:13:33;15.52;;;7.60;;
35276;SDS011;21401;50.878;8.050;2023-01-19T02:16:04;14.60;;;7.75;;
35276;SDS011;21401;50.878;8.050;2023-01-19T02:18:32;19.52;;;8.43;;
35276;SDS011;21401;50.878;8.050;2023-01-19T02:21:05;16.05;;;8.48;;
35276;SDS011;21401;50.878;8.050;2023-01-19T02:24:08;16.92;;;8.50;;
35276;SDS011;21401;50.878;8.050;2023-01-19T02:26:34;16.27;;;8.10;;
35276;SDS011;21401;50.878;8.050;2023-01-19T02:29:04;16.80;;;8.40;;
35276;SDS011;21401;50.878;8.050;2023-01-19T02:31:32;14.98;;;8.50;;
35276;SDS011;21401;50.878;8.050;2023-01-19T02:34:00;13.48;;;8.07;;
35276;SDS011;21401;50.878;8.050;2023-01-19T02:36:30;15.38;;;8.48;;
35276;SDS011;21401;50.878;8.050;2023-01-19T02:39:18;13.02;;;7.88;;
35276;SDS011;21401;50.878;8.050;2023-01-19T02:41:57;20.13;;;8.70;;
35276;SDS011;21401;50.878;8.050;2023-01-19T02:44:26;19.67;;;8.95;;
35276;SDS011;21401;50.878;8.050;2023-01-19T02:46:54;14.85;;;7.55;;
35276;SDS011;21401;50.878;8.050;2023-01-19T02:49:20;14.60;;;8.23;;
35276;SDS011;21401;50.878;8.050;2023-01-19T02:51:46;13.77;;;8.13;;
35276;SDS011;21401;50.878;8.050;2023-01-19T02:54:25;12.70;;;7.53;;
35276;SDS011;21401;50.878;8.050;2023-01-19T02:57:34;19.15;;;8.85;;
35276;SDS011;21401;50.878;8.050;2023-01-19T03:09:02;11.98;;;6.57;;
35276;SDS011;21401;50.878;8.050;2023-01-19T03:11:37;11.65;;;6.68;;
35276;SDS011;21401;50.878;8.050;2023-01-19T03:14:15;12.15;;;6.80;;
35276;SDS011;21401;50.878;8.050;2023-01-19T03:16:46;11.95;;;7.72;;
35276;SDS011;21401;50.878;8.050;2023-01-19T03:19:34;12.50;;;7.50;;
35276;SDS011;21401;50.878;8.050;2023-01-19T03:22:11;15.27;;;7.50;;
35276;SDS011;21401;50.878;8.050;2023-01-19T03:24:39;12.93;;;6.63;;
35276;SDS011;21401;50.878;8.050;2023-01-19T03:27:24;14.75;;;7.40;;
35276;SDS011;21401;50.878;8.050;2023-01-19T03:29:58;10.93;;;6.45;;
35276;SDS011;21401;50.878;8.050;2023-01-19T03:32:37;9.45;;;6.18;;
35276;SDS011;21401;50.878;8.050;2023-01-19T03:35:09;12.85;;;6.85;;
35276;SDS011;21401;50.878;8.050;2023-01-19T03:37:38;13.00;;;6.07;;
35276;SDS011;21401;50.878;8.050;2023-01-19T03:40:08;9.55;;;6.03;;
35276;SDS011;21401;50.878;8.050;2023-01-19T03:42:37;10.65;;;6.18;;
35276;SDS011;21401;50.878;8.050;2023-01-19T03:45:04;13.63;;;6.57;;
35276;SDS011;21401;50.878;8.050;2023-01-19T03:47:35;12.07;;;6.18;;
35276;SDS011;21401;50.878;8.050;2023-01-19T03:50:02;13.52;;;7.13;;
35276;SDS011;21401;50.878;8.050;2023-01-19T03:52:31;10.90;;;6.45;;
35276;SDS011;21401;50.878;8.050;2023-01-19T03:55:01;13.35;;;6.57;;
35276;SDS011;21401;50.878;8.050;2023-01-19T03:57:29;14.63;;;6.40;;
35276;SDS011;21401;50.878;8.050;2023-01-19T03:59:55;10.63;;;6.55;;
35276;SDS011;21401;50.878;8.050;2023-01-19T04:02:21;8.35;;;5.50;;
35276;SDS011;21401;50.878;8.050;2023-01-19T04:04:48;12.75;;;6.20;;
35276;SDS011;21401;50.878;8.050;2023-01-19T04:07:14;12.80;;;6.68;;
35276;SDS011;21401;50.878;8.050;2023-01-19T04:09:40;11.70;;;6.65;;
35276;SDS011;21401;50.878;8.050;2023-01-19T04:12:08;15.30;;;6.93;;
35276;SDS011;21401;50.878;8.050;2023-01-19T04:14:34;11.90;;;6.93;;
35276;SDS011;21401;50.878;8.050;2023-01-19T04:17:00;12.20;;;7.03;;
35276;SDS011;21401;50.878;8.050;2023-01-19T04:19:25;10.40;;;6.45;;
35276;SDS011;21401;50.878;8.050;2023-01-19T04:21:51;8.40;;;5.72;;
35276;SDS011;21401;50.878;8.050;2023-01-19T04:24:17;13.95;;;6.90;;
35276;SDS011;21401;50.878;8.050;2023-01-19T04:26:43;10.88;;;6.82;;
35276;SDS011;21401;50.878;8.050;2023-01-19T04:29:08;12.45;;;6.95;;
35276;SDS011;21401;50.878;8.050;2023-01-19T04:31:34;17.58;;;7.82;;
35276;SDS011;21401;50.878;8.050;2023-01-19T04:34:01;13.20;;;7.47;;
35276;SDS011;21401;50.878;8.050;2023-01-19T04:36:27;10.45;;;7.10;;
35276;SDS011;21401;50.878;8.050;2023-01-19T04:38:53;12.48;;;6.35;;
35276;SDS011;21401;50.878;8.050;2023-01-19T04:41:19;15.30;;;7.05;;
35276;SDS011;21401;50.878;8.050;2023-01-19T04:43:45;12.98;;;7.63;;
35276;SDS011;21401;50.878;8.050;2023-01-19T04:46:11;14.73;;;7.45;;
35276;SDS011;21401;50.878;8.050;2023-01-19T04:48:40;11.82;;;6.60;;
35276;SDS011;21401;50.878;8.050;2023-01-19T04:51:06;10.65;;;6.82;;
35276;SDS011;21401;50.878;8.050;2023-01-19T04:53:32;11.70;;;6.35;;
35276;SDS011;21401;50.878;8.050;2023-01-19T04:55:58;12.75;;;7.10;;
35276;SDS011;21401;50.878;8.050;2023-01-19T04:58:25;10.95;;;6.50;;
35276;SDS011;21401;50.878;8.050;2023-01-19T05:00:51;11.73;;;6.50;;
35276;SDS011;21401;50.878;8.050;2023-01-19T05:03:17;11.00;;;6.32;;
35276;SDS011;21401;50.878;8.050;2023-01-19T05:05:43;11.73;;;6.43;;
35276;SDS011;21401;50.878;8.050;2023-01-19T05:08:10;12.60;;;6.18;;
35276;SDS011;21401;50.878;8.050;2023-01-19T05:10:36;12.75;;;6.65;;
35276;SDS011;21401;50.878;8.050;2023-01-19T05:13:01;14.10;;;6.15;;
35276;SDS011;21401;50.878;8.050;2023-01-19T05:15:28;12.27;;;6.50;;
35276;SDS011;21401;50.878;8.050;2023-01-19T05:17:54;10.90;;;5.93;;
35276;SDS011;21401;50.878;8.050;2023-01-19T05:20:21;10.10;;;6.60;;
35276;SDS011;21401;50.878;8.050;2023-01-19T05:22:48;11.15;;;6.60;;
35276;SDS011;21401;50.878;8.050;2023-01-19T05:25:15;11.73;;;6.75;;
35276;SDS011;21401;50.878;8.050;2023-01-19T05:27:41;9.35;;;5.95;;
35276;SDS011;21401;50.878;8.050;2023-01-19T05:30:08;9.80;;;6.30;;
35276;SDS011;21401;50.878;8.050;2023-01-19T05:32:35;12.93;;;7.13;;
35276;SDS011;21401;50.878;8.050;2023-01-19T05:35:01;11.93;;;7.03;;
35276;SDS011;21401;50.878;8.050;2023-01-19T05:37:26;12.13;;;6.20;;
35276;SDS011;21401;50.878;8.050;2023-01-19T05:39:52;9.73;;;6.28;;
35276;SDS011;21401;50.878;8.050;2023-01-19T05:42:21;9.45;;;6.63;;
35276;SDS011;21401;50.878;8.050;2023-01-19T05:44:49;11.45;;;6.43;;
35276;SDS011;21401;50.878;8.050;2023-01-19T05:47:18;10.38;;;7.60;;
35276;SDS011;21401;50.878;8.050;2023-01-19T05:49:44;11.18;;;7.45;;
35276;SDS011;21401;50.878;8.050;2023-01-19T05:52:09;12.05;;;7.18;;
35276;SDS011;21401;50.878;8.050;2023-01-19T05:54:35;12.63;;;7.20;;
35276;SDS011;21401;50.878;8.050;2023-01-19T05:57:04;17.30;;;7.18;;
35276;SDS011;21401;50.878;8.050;2023-01-19T05:59:32;12.70;;;7.40;;
35276;SDS011;21401;50.878;8.050;2023-01-19T06:01:58;11.90;;;7.18;;
35276;SDS011;21401;50.878;8.050;2023-01-19T06:04:26;15.80;;;7.03;;
35276;SDS011;21401;50.878;8.050;2023-01-19T06:06:52;11.80;;;7.70;;
35276;SDS011;21401;50.878;8.050;2023-01-19T06:09:18;9.88;;;6.72;;
35276;SDS011;21401;50.878;8.050;2023-01-19T06:11:47;14.15;;;7.50;;
35276;SDS011;21401;50.878;8.050;2023-01-19T06:14:16;11.35;;;7.50;;
35276;SDS011;21401;50.878;8.050;2023-01-19T06:26:27;15.02;;;7.20;;
35276;SDS011;21401;50.878;8.050;2023-01-19T06:28:53;16.67;;;8.75;;
35276;SDS011;21401;50.878;8.050;2023-01-19T06:31:42;16.05;;;8.27;;
35276;SDS011;21401;50.878;8.050;2023-01-19T06:55:23;18.50;;;9.02;;
35276;SDS011;21401;50.878;8.050;2023-01-19T07:04:56;18.23;;;10.18;;
35276;SDS011;21401;50.878;8.050;2023-01-19T07:07:30;14.98;;;9.13;;
35276;SDS011;21401;50.878;8.050;2023-01-19T07:10:12;19.95;;;9.57;;
35276;SDS011;21401;50.878;8.050;2023-01-19T07:13:05;16.88;;;11.27;;
35276;SDS011;21401;50.878;8.050;2023-01-19T07:16:13;21.55;;;10.55;;
35276;SDS011;21401;50.878;8.050;2023-01-19T07:18:50;22.55;;;8.20;;
35276;SDS011;21401;50.878;8.050;2023-01-19T07:21:40;19.13;;;10.20;;
35276;SDS011;21401;50.878;8.050;2023-01-19T07:24:20;21.95;;;10.52;;
35276;SDS011;21401;50.878;8.050;2023-01-19T07:27:28;22.02;;;11.70;;
35276;SDS011;21401;50.878;8.050;2023-01-19T07:45:08;16.80;;;10.70;;
35276;SDS011;21401;50.878;8.050;2023-01-19T07:51:48;16.55;;;11.02;;
35276;SDS011;21401;50.878;8.050;2023-01-19T08:12:45;17.77;;;10.68;;
35276;SDS011;21401;50.878;8.050;2023-01-19T08:22:30;21.85;;;10.88;;
35276;SDS011;21401;50.878;8.050;2023-01-19T09:40:59;14.70;;;9.32;;
35276;SDS011;21401;50.878;8.050;2023-01-19T09:43:44;17.70;;;9.63;;
